createdAt,value
2019-04-16T00:00:11.837Z,94.90
2019-04-16T00:00:50.606Z,94.90
2019-04-16T00:01:48.664Z,94.90
2019-04-16T00:02:53.056Z,95.10
2019-04-16T00:03:25.873Z,95.20
2019-04-16T00:04:02.700Z,95.40
2019-04-16T00:05:12.873Z,95.50
2019-04-16T00:05:48.523Z,95.60
2019-04-16T00:06:30.208Z,95.60
2019-04-16T00:07:21.393Z,95.80
2019-04-16T00:08:27.809Z,95.80
2019-04-16T00:08:58.729Z,95.90
2019-04-16T00:09:53.608Z,96.10
2019-04-16T00:10:51.305Z,96.10
2019-04-16T00:11:46.122Z,96.20
2019-04-16T00:12:33.453Z,96.30
2019-04-16T00:13:31.710Z,96.40
2019-04-16T00:14:24.100Z,96.40
2019-04-16T00:14:57.410Z,96.40
2019-04-16T00:15:29.930Z,96.60
2019-04-16T00:16:02.465Z,96.60
2019-04-16T00:16:34.967Z,96.70
2019-04-16T00:17:07.492Z,96.80
2019-04-16T00:17:40.403Z,96.90
2019-04-16T00:18:12.938Z,96.90
2019-04-16T00:18:56.685Z,96.90
2019-04-16T00:19:19.801Z,96.80
2019-04-16T00:19:52.635Z,96.80
2019-04-16T00:20:25.158Z,96.90
2019-04-16T00:21:23.461Z,96.90
2019-04-16T00:22:13.070Z,97.00
2019-04-16T00:23:10.039Z,96.90
2019-04-16T00:24:10.830Z,97.10
2019-04-16T00:24:46.701Z,97.10
2019-04-16T00:25:19.247Z,96.80
2019-04-16T00:25:52.048Z,96.80
2019-04-16T00:26:26.800Z,97.00
2019-04-16T00:27:00.095Z,97.00
2019-04-16T00:27:32.895Z,97.10
2019-04-16T00:28:05.719Z,97.10
2019-04-16T00:28:38.282Z,97.30
2019-04-16T00:29:10.793Z,97.40
2019-04-16T00:29:43.313Z,97.50
2019-04-16T00:30:16.652Z,97.50
2019-04-16T00:30:49.169Z,97.50
2019-04-16T00:31:21.698Z,97.30
2019-04-16T00:32:00.469Z,97.50
2019-04-16T00:32:32.999Z,97.50
2019-04-16T00:33:07.572Z,97.20
2019-04-16T00:33:42.670Z,97.20
2019-04-16T00:34:14.534Z,97.20
2019-04-16T00:34:47.141Z,97.50
2019-04-16T00:35:20.022Z,97.30
2019-04-16T00:35:52.550Z,97.10
2019-04-16T00:36:25.109Z,96.80
2019-04-16T00:36:57.630Z,96.90
2019-04-16T00:37:30.154Z,96.70
2019-04-16T00:38:03.062Z,96.60
2019-04-16T00:38:40.808Z,96.70
2019-04-16T00:39:09.919Z,96.70
2019-04-16T00:39:42.477Z,96.60
2019-04-16T00:40:15.157Z,96.50
2019-04-16T00:40:47.687Z,96.40
2019-04-16T00:41:20.221Z,96.40
2019-04-16T00:41:53.185Z,96.50
2019-04-16T00:42:26.180Z,96.70
2019-04-16T00:42:58.698Z,96.70
2019-04-16T00:43:31.222Z,96.80
2019-04-16T00:44:03.866Z,96.90
2019-04-16T00:44:36.681Z,96.80
2019-04-16T00:45:09.359Z,96.70
2019-04-16T00:45:41.896Z,96.90
2019-04-16T00:46:14.418Z,96.90
2019-04-16T00:46:46.959Z,97.00
2019-04-16T00:47:19.475Z,97.00
2019-04-16T00:47:52.172Z,97.10
2019-04-16T00:48:24.856Z,96.90
2019-04-16T00:48:57.727Z,97.00
2019-04-16T00:49:30.554Z,97.00
2019-04-16T00:50:03.319Z,97.10
2019-04-16T00:50:36.285Z,97.20
2019-04-16T00:51:09.270Z,97.30
2019-04-16T00:51:41.811Z,97.70
2019-04-16T00:52:14.330Z,97.90
2019-04-16T00:52:46.840Z,98.10
2019-04-16T00:53:19.750Z,97.90
2019-04-16T00:53:52.283Z,97.90
2019-04-16T00:54:24.838Z,97.90
2019-04-16T00:54:57.375Z,97.90
2019-04-16T00:55:29.903Z,97.90
2019-04-16T00:56:02.835Z,97.90
2019-04-16T00:56:35.731Z,98.10
2019-04-16T00:57:08.253Z,98.20
2019-04-16T00:57:41.176Z,98.20
2019-04-16T00:58:14.003Z,98.30
2019-04-16T00:58:49.290Z,98.40
2019-04-16T00:59:21.408Z,98.50
2019-04-16T00:59:56.502Z,98.60
2019-04-16T01:00:30.616Z,98.90
2019-04-16T01:01:03.686Z,99.20
2019-04-16T01:01:36.266Z,99.60
2019-04-16T01:02:08.844Z,99.70
2019-04-16T01:02:41.350Z,99.60
2019-04-16T01:03:14.982Z,99.60
2019-04-16T01:03:47.521Z,99.60
2019-04-16T01:04:20.041Z,99.60
2019-04-16T01:04:52.897Z,99.70
2019-04-16T01:05:25.622Z,99.60
2019-04-16T01:05:58.464Z,99.50
2019-04-16T01:06:30.998Z,99.50
2019-04-16T01:07:03.961Z,99.60
2019-04-16T01:07:36.482Z,99.40
2019-04-16T01:08:09.442Z,99.00
2019-04-16T01:08:54.026Z,99.00
2019-04-16T01:09:17.020Z,99.00
2019-04-16T01:09:49.529Z,99.00
2019-04-16T01:10:22.214Z,99.10
2019-04-16T01:10:54.755Z,99.20
2019-04-16T01:11:27.273Z,99.20
2019-04-16T01:11:59.817Z,99.20
2019-04-16T01:12:32.976Z,99.10
2019-04-16T01:13:05.842Z,99.20
2019-04-16T01:13:38.881Z,99.20
2019-04-16T01:14:11.938Z,99.20
2019-04-16T01:14:44.471Z,99.20
2019-04-16T01:15:16.992Z,99.20
2019-04-16T01:15:49.514Z,99.20
2019-04-16T01:16:22.030Z,99.00
2019-04-16T01:16:54.553Z,99.00
2019-04-16T01:17:27.103Z,99.00
2019-04-16T01:17:59.950Z,99.00
2019-04-16T01:18:32.493Z,99.00
2019-04-16T01:19:09.724Z,99.00
2019-04-16T01:19:41.179Z,99.20
2019-04-16T01:20:13.857Z,99.20
2019-04-16T01:20:46.377Z,99.10
2019-04-16T01:21:19.265Z,98.90
2019-04-16T01:21:51.810Z,98.90
2019-04-16T01:22:24.998Z,98.90
2019-04-16T01:22:57.671Z,99.00
2019-04-16T01:23:30.237Z,99.00
2019-04-16T01:24:02.745Z,98.90
2019-04-16T01:24:35.614Z,98.90
2019-04-16T01:25:08.140Z,98.80
2019-04-16T01:25:40.666Z,98.80
2019-04-16T01:26:13.194Z,98.80
2019-04-16T01:26:45.733Z,98.80
2019-04-16T01:27:20.062Z,99.00
2019-04-16T01:27:59.815Z,99.10
2019-04-16T01:28:32.918Z,99.10
2019-04-16T01:29:09.188Z,99.10
2019-04-16T01:29:41.768Z,99.00
2019-04-16T01:30:16.265Z,98.90
2019-04-16T01:31:11.030Z,98.90
2019-04-16T01:32:03.029Z,98.80
2019-04-16T01:32:55.193Z,98.30
2019-04-16T01:33:35.481Z,98.00
2019-04-16T01:34:30.657Z,97.60
2019-04-16T01:35:25.821Z,97.60
2019-04-16T01:36:16.445Z,98.10
2019-04-16T01:37:03.955Z,98.30
2019-04-16T01:37:58.770Z,98.30
2019-04-16T01:39:07.596Z,98.50
2019-04-16T01:39:32.100Z,98.10
2019-04-16T01:40:05.182Z,98.00
2019-04-16T01:41:00.638Z,97.60
2019-04-16T01:41:33.750Z,97.60
2019-04-16T01:42:06.658Z,97.80
2019-04-16T01:42:39.172Z,97.70
2019-04-16T01:43:11.698Z,97.70
2019-04-16T01:43:44.218Z,97.70
2019-04-16T01:44:16.790Z,97.60
2019-04-16T01:44:49.322Z,97.70
2019-04-16T01:45:21.842Z,97.90
2019-04-16T01:45:54.698Z,98.20
2019-04-16T01:46:27.218Z,98.40
2019-04-16T01:47:03.402Z,98.50
2019-04-16T01:47:37.153Z,98.60
2019-04-16T01:48:08.790Z,98.50
2019-04-16T01:48:41.325Z,98.60
2019-04-16T01:49:13.899Z,98.90
2019-04-16T01:49:46.909Z,98.60
2019-04-16T01:50:19.427Z,98.70
2019-04-16T01:50:51.962Z,98.80
2019-04-16T01:51:24.873Z,99.00
2019-04-16T01:51:57.400Z,99.20
2019-04-16T01:52:29.943Z,99.50
2019-04-16T01:53:02.821Z,99.60
2019-04-16T01:53:35.337Z,99.60
2019-04-16T01:54:07.879Z,99.80
2019-04-16T01:54:40.421Z,99.90
2019-04-16T01:55:12.982Z,99.90
2019-04-16T01:55:45.513Z,99.90
2019-04-16T01:56:18.049Z,99.90
2019-04-16T01:56:50.590Z,99.90
2019-04-16T01:57:23.115Z,99.90
2019-04-16T01:57:55.640Z,99.90
2019-04-16T01:58:28.476Z,99.90
2019-04-16T01:59:04.566Z,99.90
2019-04-16T01:59:35.786Z,99.90
2019-04-16T02:00:10.251Z,99.90
2019-04-16T02:00:42.814Z,99.90
2019-04-16T02:01:15.877Z,99.90
2019-04-16T02:01:48.406Z,99.90
2019-04-16T02:02:21.099Z,99.90
2019-04-16T02:02:53.979Z,99.90
2019-04-16T02:03:26.516Z,99.90
2019-04-16T02:03:59.415Z,99.90
2019-04-16T02:04:32.471Z,99.90
2019-04-16T02:05:05.382Z,99.90
2019-04-16T02:05:37.906Z,99.90
2019-04-16T02:06:10.799Z,99.90
2019-04-16T02:06:43.323Z,99.90
2019-04-16T02:07:15.862Z,99.90
2019-04-16T02:07:48.412Z,99.90
2019-04-16T02:08:21.257Z,99.90
2019-04-16T02:08:53.777Z,99.90
2019-04-16T02:09:26.783Z,99.90
2019-04-16T02:09:59.311Z,99.90
2019-04-16T02:10:32.388Z,99.90
2019-04-16T02:11:09.625Z,99.90
2019-04-16T02:11:41.438Z,99.90
2019-04-16T02:12:14.162Z,99.90
2019-04-16T02:12:46.729Z,99.90
2019-04-16T02:13:19.308Z,99.90
2019-04-16T02:13:51.807Z,99.90
2019-04-16T02:14:24.340Z,99.70
2019-04-16T02:14:57.239Z,99.90
2019-04-16T02:15:30.098Z,99.90
2019-04-16T02:16:02.635Z,99.90
2019-04-16T02:16:35.533Z,99.90
2019-04-16T02:17:08.417Z,99.90
2019-04-16T02:17:41.362Z,99.90
2019-04-16T02:18:14.667Z,99.90
2019-04-16T02:18:47.946Z,99.90
2019-04-16T02:19:21.173Z,99.90
2019-04-16T02:19:53.717Z,99.90
2019-04-16T02:20:26.246Z,99.90
2019-04-16T02:20:58.785Z,99.90
2019-04-16T02:21:31.618Z,99.90
2019-04-16T02:22:04.560Z,99.90
2019-04-16T02:22:37.102Z,99.90
2019-04-16T02:23:09.631Z,99.90
2019-04-16T02:23:42.157Z,99.90
2019-04-16T02:24:18.582Z,99.90
2019-04-16T02:24:49.017Z,99.90
2019-04-16T02:25:21.858Z,99.90
2019-04-16T02:25:54.386Z,99.90
2019-04-16T02:26:27.295Z,99.90
2019-04-16T02:26:59.930Z,99.90
2019-04-16T02:27:32.803Z,99.90
2019-04-16T02:28:05.362Z,99.90
2019-04-16T02:28:38.683Z,99.90
2019-04-16T02:29:11.204Z,99.90
2019-04-16T02:29:43.721Z,99.90
2019-04-16T02:30:16.267Z,99.90
2019-04-16T02:30:49.162Z,99.90
2019-04-16T02:31:21.698Z,99.90
2019-04-16T02:31:54.680Z,99.90
2019-04-16T02:32:27.207Z,99.90
2019-04-16T02:32:59.732Z,99.90
2019-04-16T02:33:32.301Z,99.90
2019-04-16T02:34:04.837Z,99.90
2019-04-16T02:34:37.504Z,99.90
2019-04-16T02:35:10.230Z,99.90
2019-04-16T02:35:43.758Z,99.90
2019-04-16T02:36:16.572Z,99.90
2019-04-16T02:36:49.089Z,99.90
2019-04-16T02:37:21.635Z,99.90
2019-04-16T02:37:54.174Z,99.90
2019-04-16T02:38:27.074Z,99.90
2019-04-16T02:38:59.643Z,99.90
2019-04-16T02:39:47.886Z,99.90
2019-04-16T02:40:07.528Z,99.90
2019-04-16T02:40:40.399Z,99.90
2019-04-16T02:41:13.289Z,99.90
2019-04-16T02:41:45.813Z,99.90
2019-04-16T02:42:18.340Z,99.90
2019-04-16T02:42:50.880Z,99.90
2019-04-16T02:43:23.420Z,99.90
2019-04-16T02:43:55.930Z,99.90
2019-04-16T02:44:28.499Z,99.90
2019-04-16T02:45:02.113Z,99.90
2019-04-16T02:45:35.105Z,99.90
2019-04-16T02:46:07.914Z,99.90
2019-04-16T02:46:40.452Z,99.90
2019-04-16T02:47:12.980Z,99.90
2019-04-16T02:47:45.528Z,99.90
2019-04-16T02:48:18.995Z,99.90
2019-04-16T02:48:51.856Z,99.90
2019-04-16T02:49:25.163Z,99.90
2019-04-16T02:49:58.686Z,99.90
2019-04-16T02:50:41.802Z,99.90
2019-04-16T02:51:27.065Z,99.90
2019-04-16T02:52:25.251Z,99.90
2019-04-16T02:53:24.474Z,99.90
2019-04-16T02:54:21.063Z,99.90
2019-04-16T02:55:07.678Z,99.90
2019-04-16T02:55:43.883Z,99.90
2019-04-16T02:56:39.272Z,99.90
2019-04-16T02:57:34.423Z,99.90
2019-04-16T02:58:10.864Z,99.90
2019-04-16T02:58:50.557Z,99.90
2019-04-16T02:59:26.807Z,99.90
2019-04-16T03:00:00.868Z,99.90
2019-04-16T03:00:48.789Z,99.90
2019-04-16T03:01:29.274Z,99.90
2019-04-16T03:02:23.037Z,99.90
2019-04-16T03:03:00.619Z,99.90
2019-04-16T03:03:38.099Z,99.90
2019-04-16T03:04:14.958Z,99.90
2019-04-16T03:04:51.917Z,99.90
2019-04-16T03:05:30.839Z,99.90
2019-04-16T03:06:03.607Z,99.90
2019-04-16T03:06:36.138Z,99.90
2019-04-16T03:07:08.666Z,99.90
2019-04-16T03:07:41.498Z,99.90
2019-04-16T03:08:14.016Z,99.90
2019-04-16T03:08:46.563Z,99.90
2019-04-16T03:09:19.102Z,99.90
2019-04-16T03:10:01.033Z,99.90
2019-04-16T03:10:26.081Z,99.90
2019-04-16T03:10:58.621Z,99.90
2019-04-16T03:11:31.180Z,99.90
2019-04-16T03:12:03.828Z,99.90
2019-04-16T03:12:36.813Z,99.90
2019-04-16T03:13:09.338Z,99.90
2019-04-16T03:13:42.198Z,99.90
2019-04-16T03:14:14.946Z,99.90
2019-04-16T03:14:47.836Z,99.90
2019-04-16T03:15:39.858Z,99.90
2019-04-16T03:16:26.282Z,99.90
2019-04-16T03:17:17.154Z,99.90
2019-04-16T03:17:49.679Z,99.90
2019-04-16T03:18:26.095Z,99.90
2019-04-16T03:19:07.998Z,99.90
2019-04-16T03:19:42.183Z,99.90
2019-04-16T03:20:15.689Z,99.90
2019-04-16T03:20:48.223Z,99.90
2019-04-16T03:21:20.775Z,99.90
2019-04-16T03:21:55.670Z,99.90
2019-04-16T03:22:30.692Z,99.90
2019-04-16T03:23:05.303Z,99.90
2019-04-16T03:23:37.612Z,99.90
2019-04-16T03:24:11.195Z,99.90
2019-04-16T03:24:44.070Z,99.90
2019-04-16T03:25:16.598Z,99.90
2019-04-16T03:25:49.122Z,99.90
2019-04-16T03:26:21.655Z,99.90
2019-04-16T03:26:54.178Z,99.90
2019-04-16T03:27:27.375Z,99.90
2019-04-16T03:27:59.956Z,99.90
2019-04-16T03:28:32.823Z,99.90
2019-04-16T03:29:05.374Z,99.90
2019-04-16T03:29:37.915Z,99.90
2019-04-16T03:30:12.143Z,99.90
2019-04-16T03:30:45.027Z,99.90
2019-04-16T03:31:22.132Z,99.90
2019-04-16T03:31:57.515Z,99.90
2019-04-16T03:32:33.599Z,99.90
2019-04-16T03:33:10.178Z,99.90
2019-04-16T03:33:35.623Z,99.90
2019-04-16T03:34:08.896Z,99.90
2019-04-16T03:34:41.422Z,99.90
2019-04-16T03:35:13.965Z,99.90
2019-04-16T03:35:46.489Z,99.90
2019-04-16T03:36:19.067Z,99.90
2019-04-16T03:36:51.686Z,99.90
2019-04-16T03:37:24.529Z,99.90
2019-04-16T03:37:57.054Z,99.90
2019-04-16T03:38:29.589Z,99.90
2019-04-16T03:39:02.157Z,99.90
2019-04-16T03:39:34.692Z,99.90
2019-04-16T03:40:16.631Z,99.90
2019-04-16T03:40:42.105Z,99.90
2019-04-16T03:41:14.669Z,99.90
2019-04-16T03:41:47.542Z,99.90
2019-04-16T03:42:20.096Z,99.90
2019-04-16T03:42:52.624Z,99.90
2019-04-16T03:43:25.550Z,99.90
2019-04-16T03:43:58.073Z,99.90
2019-04-16T03:44:33.339Z,99.90
2019-04-16T03:45:09.189Z,99.90
2019-04-16T03:45:40.431Z,99.90
2019-04-16T03:46:14.171Z,99.90
2019-04-16T03:46:47.738Z,99.90
2019-04-16T03:47:20.443Z,99.90
2019-04-16T03:47:52.992Z,99.90
2019-04-16T03:48:25.515Z,99.90
2019-04-16T03:48:58.038Z,99.90
2019-04-16T03:49:30.955Z,99.90
2019-04-16T03:50:03.745Z,99.90
2019-04-16T03:50:36.279Z,99.90
2019-04-16T03:51:08.822Z,99.90
2019-04-16T03:51:41.654Z,99.90
2019-04-16T03:52:14.206Z,99.90
2019-04-16T03:52:47.030Z,99.90
2019-04-16T03:53:19.589Z,99.90
2019-04-16T03:53:52.125Z,99.90
2019-04-16T03:54:24.651Z,99.90
2019-04-16T03:54:57.694Z,99.90
2019-04-16T03:55:30.286Z,99.90
2019-04-16T03:56:02.818Z,99.90
2019-04-16T03:56:35.760Z,99.90
2019-04-16T03:57:08.297Z,99.90
2019-04-16T03:57:40.838Z,99.90
2019-04-16T03:58:13.386Z,99.90
2019-04-16T03:58:45.918Z,99.90
2019-04-16T03:59:18.446Z,99.90
2019-04-16T03:59:51.352Z,99.90
2019-04-16T04:00:23.888Z,99.90
2019-04-16T04:00:56.455Z,99.90
2019-04-16T04:01:28.984Z,99.90
2019-04-16T04:02:01.522Z,99.90
2019-04-16T04:02:34.059Z,99.90
2019-04-16T04:03:06.611Z,99.90
2019-04-16T04:03:39.814Z,99.90
2019-04-16T04:04:12.354Z,99.90
2019-04-16T04:04:45.242Z,99.90
2019-04-16T04:05:18.201Z,99.90
2019-04-16T04:05:57.022Z,99.90
2019-04-16T04:06:29.598Z,99.90
2019-04-16T04:07:02.120Z,99.90
2019-04-16T04:07:34.654Z,99.90
2019-04-16T04:08:07.398Z,99.90
2019-04-16T04:08:39.950Z,99.90
2019-04-16T04:09:12.489Z,99.90
2019-04-16T04:09:45.684Z,99.90
2019-04-16T04:10:29.923Z,99.90
2019-04-16T04:10:52.711Z,99.90
2019-04-16T04:11:26.047Z,99.90
2019-04-16T04:11:58.622Z,99.90
2019-04-16T04:12:31.162Z,99.90
2019-04-16T04:13:04.995Z,99.90
2019-04-16T04:13:38.131Z,99.90
2019-04-16T04:14:11.008Z,99.90
2019-04-16T04:14:43.534Z,99.90
2019-04-16T04:15:16.077Z,99.90
2019-04-16T04:15:48.898Z,99.90
2019-04-16T04:16:22.103Z,99.90
2019-04-16T04:16:55.344Z,99.90
2019-04-16T04:17:27.920Z,99.90
2019-04-16T04:18:00.453Z,99.90
2019-04-16T04:18:32.997Z,99.90
2019-04-16T04:19:06.034Z,99.90
2019-04-16T04:19:38.965Z,99.90
2019-04-16T04:20:14.644Z,99.90
2019-04-16T04:20:49.697Z,99.90
2019-04-16T04:21:22.099Z,99.90
2019-04-16T04:21:54.835Z,99.90
2019-04-16T04:22:27.370Z,99.90
2019-04-16T04:23:00.006Z,99.90
2019-04-16T04:23:32.534Z,99.90
2019-04-16T04:24:05.066Z,99.90
2019-04-16T04:24:37.597Z,99.90
2019-04-16T04:25:10.641Z,99.90
2019-04-16T04:25:43.167Z,99.90
2019-04-16T04:26:15.720Z,99.90
2019-04-16T04:26:48.699Z,99.90
2019-04-16T04:27:21.938Z,99.90
2019-04-16T04:27:55.551Z,99.90
2019-04-16T04:28:28.127Z,99.90
2019-04-16T04:29:00.958Z,99.90
2019-04-16T04:29:33.845Z,99.90
2019-04-16T04:30:06.806Z,99.90
2019-04-16T04:30:39.994Z,99.90
2019-04-16T04:31:13.001Z,99.90
2019-04-16T04:31:46.746Z,99.90
2019-04-16T04:32:19.471Z,99.90
2019-04-16T04:32:51.999Z,99.90
2019-04-16T04:33:41.626Z,99.90
2019-04-16T04:34:15.876Z,99.90
2019-04-16T04:34:48.765Z,99.90
2019-04-16T04:35:22.315Z,99.90
2019-04-16T04:35:55.479Z,99.90
2019-04-16T04:36:28.436Z,99.90
2019-04-16T04:37:01.418Z,99.90
2019-04-16T04:37:33.987Z,99.90
2019-04-16T04:38:06.529Z,99.90
2019-04-16T04:38:39.483Z,99.90
2019-04-16T04:39:15.305Z,99.90
2019-04-16T04:39:46.820Z,99.90
2019-04-16T04:40:19.356Z,99.90
2019-04-16T04:40:52.336Z,99.90
2019-04-16T04:41:25.206Z,99.90
2019-04-16T04:41:57.754Z,99.90
2019-04-16T04:42:30.635Z,99.90
2019-04-16T04:43:03.363Z,99.90
2019-04-16T04:43:36.221Z,99.90
2019-04-16T04:44:09.152Z,99.90
2019-04-16T04:44:41.762Z,99.90
2019-04-16T04:45:14.676Z,99.90
2019-04-16T04:45:47.951Z,99.90
2019-04-16T04:46:21.009Z,99.90
2019-04-16T04:46:53.908Z,99.90
2019-04-16T04:47:26.442Z,99.90
2019-04-16T04:47:59.031Z,99.90
2019-04-16T04:48:31.569Z,99.90
2019-04-16T04:49:04.113Z,99.90
2019-04-16T04:49:37.003Z,99.90
2019-04-16T04:50:10.188Z,99.90
2019-04-16T04:50:42.830Z,99.90
2019-04-16T04:51:15.958Z,99.90
2019-04-16T04:51:48.677Z,99.90
2019-04-16T04:52:21.230Z,99.90
2019-04-16T04:52:53.803Z,99.90
2019-04-16T04:53:26.407Z,99.90
2019-04-16T04:53:58.986Z,99.90
2019-04-16T04:54:32.088Z,99.90
2019-04-16T04:55:04.898Z,99.90
2019-04-16T04:55:37.796Z,99.90
2019-04-16T04:56:10.355Z,99.90
2019-04-16T04:56:42.914Z,99.90
2019-04-16T04:57:15.494Z,99.90
2019-04-16T04:57:48.019Z,99.90
2019-04-16T04:58:20.559Z,99.90
2019-04-16T04:58:53.453Z,99.90
2019-04-16T04:59:26.518Z,99.90
2019-04-16T04:59:59.051Z,99.90
2019-04-16T05:00:31.590Z,99.90
2019-04-16T05:01:04.167Z,99.90
2019-04-16T05:01:36.702Z,99.60
2019-04-16T05:02:10.596Z,99.20
2019-04-16T05:02:44.338Z,98.60
2019-04-16T05:03:30.478Z,97.80
2019-04-16T05:04:25.457Z,97.20
2019-04-16T05:05:13.083Z,96.60
2019-04-16T05:05:49.559Z,95.10
2019-04-16T05:06:27.749Z,93.90
2019-04-16T05:07:04.568Z,92.90
2019-04-16T05:07:39.450Z,91.90
2019-04-16T05:08:12.786Z,91.90
2019-04-16T05:08:45.267Z,91.10
2019-04-16T05:09:18.139Z,91.10
2019-04-16T05:09:50.764Z,90.40
2019-04-16T05:10:23.692Z,89.60
2019-04-16T05:10:59.909Z,88.80
2019-04-16T05:11:31.035Z,88.40
2019-04-16T05:12:04.007Z,88.80
2019-04-16T05:12:36.822Z,86.90
2019-04-16T05:13:09.678Z,85.70
2019-04-16T05:13:42.494Z,85.30
2019-04-16T05:14:15.039Z,84.60
2019-04-16T05:14:57.089Z,82.90
2019-04-16T05:15:26.403Z,79.30
2019-04-16T05:16:01.903Z,77.30
2019-04-16T05:16:35.131Z,76.00
2019-04-16T05:17:07.903Z,74.40
2019-04-16T05:17:40.734Z,71.50
2019-04-16T05:18:13.258Z,69.90
2019-04-16T05:18:45.836Z,68.00
2019-04-16T05:19:18.402Z,67.20
2019-04-16T05:19:51.081Z,65.60
2019-04-16T05:20:23.609Z,65.10
2019-04-16T05:20:56.167Z,64.50
2019-04-16T05:21:28.706Z,63.70
2019-04-16T05:22:01.268Z,61.60
2019-04-16T05:22:34.634Z,59.70
2019-04-16T05:23:07.778Z,58.10
2019-04-16T05:23:40.586Z,57.00
2019-04-16T05:24:13.114Z,56.00
2019-04-16T05:24:45.650Z,55.00
2019-04-16T05:25:18.531Z,54.10
2019-04-16T05:25:51.070Z,52.70
2019-04-16T05:26:23.611Z,52.50
2019-04-16T05:26:56.408Z,52.10
2019-04-16T05:27:29.812Z,51.30
2019-04-16T05:28:02.675Z,50.30
2019-04-16T05:28:35.531Z,50.10
2019-04-16T05:29:16.540Z,49.90
2019-04-16T05:29:48.929Z,49.50
2019-04-16T05:30:21.776Z,48.60
2019-04-16T05:30:54.794Z,47.90
2019-04-16T05:31:27.331Z,47.40
2019-04-16T05:31:59.875Z,47.10
2019-04-16T05:32:34.053Z,46.90
2019-04-16T05:33:06.710Z,45.90
2019-04-16T05:33:40.063Z,45.00
2019-04-16T05:34:12.703Z,45.00
2019-04-16T05:34:45.694Z,44.70
2019-04-16T05:35:18.233Z,44.50
2019-04-16T05:35:51.149Z,43.80
2019-04-16T05:36:24.013Z,43.90
2019-04-16T05:36:56.555Z,42.90
2019-04-16T05:37:29.096Z,42.50
2019-04-16T05:38:02.488Z,42.10
2019-04-16T05:38:35.013Z,42.50
2019-04-16T05:39:08.550Z,42.90
2019-04-16T05:39:41.095Z,42.20
2019-04-16T05:40:14.050Z,42.30
2019-04-16T05:40:46.884Z,41.90
2019-04-16T05:41:22.024Z,41.50
2019-04-16T05:41:53.730Z,41.50
2019-04-16T05:42:26.531Z,41.60
2019-04-16T05:42:59.677Z,41.40
2019-04-16T05:43:32.562Z,40.90
2019-04-16T05:44:05.481Z,40.80
2019-04-16T05:44:38.827Z,40.20
2019-04-16T05:45:11.511Z,40.30
2019-04-16T05:45:44.350Z,40.10
2019-04-16T05:46:16.903Z,39.60
2019-04-16T05:46:49.427Z,39.70
2019-04-16T05:47:22.231Z,39.00
2019-04-16T05:47:55.115Z,39.10
2019-04-16T05:48:27.642Z,39.50
2019-04-16T05:49:00.562Z,39.50
2019-04-16T05:49:33.075Z,39.50
2019-04-16T05:50:06.602Z,39.70
2019-04-16T05:50:39.123Z,40.00
2019-04-16T05:51:12.025Z,40.20
2019-04-16T05:51:44.549Z,39.50
2019-04-16T05:52:17.450Z,39.60
2019-04-16T05:52:49.978Z,40.00
2019-04-16T05:53:22.798Z,39.80
2019-04-16T05:53:57.785Z,39.90
2019-04-16T05:54:48.414Z,40.00
2019-04-16T05:55:29.883Z,40.50
2019-04-16T05:56:37.346Z,40.30
2019-04-16T05:57:18.511Z,40.30
2019-04-16T05:57:51.298Z,40.70
2019-04-16T05:58:27.511Z,40.90
2019-04-16T05:58:59.640Z,41.20
2019-04-16T05:59:34.560Z,40.10
2019-04-16T06:00:15.604Z,39.40
2019-04-16T06:01:14.411Z,39.30
2019-04-16T06:01:51.827Z,39.20
2019-04-16T06:02:42.697Z,39.20
2019-04-16T06:03:15.229Z,39.20
2019-04-16T06:03:52.845Z,39.30
2019-04-16T06:04:24.978Z,39.70
2019-04-16T06:04:56.672Z,39.80
2019-04-16T06:05:29.215Z,39.50
2019-04-16T06:06:01.762Z,39.50
2019-04-16T06:06:34.303Z,40.00
2019-04-16T06:07:07.742Z,40.50
2019-04-16T06:07:40.806Z,40.70
2019-04-16T06:08:13.663Z,41.00
2019-04-16T06:08:46.186Z,40.90
2019-04-16T06:09:18.708Z,41.00
2019-04-16T06:09:51.220Z,40.80
2019-04-16T06:10:23.887Z,41.30
2019-04-16T06:10:57.680Z,41.50
2019-04-16T06:11:35.649Z,41.90
2019-04-16T06:12:05.880Z,42.40
2019-04-16T06:13:13.998Z,43.30
2019-04-16T06:14:16.768Z,44.10
2019-04-16T06:14:53.914Z,44.40
2019-04-16T06:15:35.844Z,45.50
2019-04-16T06:16:33.314Z,45.70
2019-04-16T06:17:25.795Z,46.40
2019-04-16T06:18:19.677Z,47.70
2019-04-16T06:19:21.255Z,47.50
2019-04-16T06:20:21.299Z,48.20
2019-04-16T06:21:07.317Z,49.90
2019-04-16T06:21:58.145Z,50.70
2019-04-16T06:22:52.878Z,51.30
2019-04-16T06:23:43.726Z,51.60
2019-04-16T06:24:29.049Z,52.00
2019-04-16T06:25:20.519Z,51.70
2019-04-16T06:25:58.742Z,51.90
2019-04-16T06:26:55.461Z,52.40
2019-04-16T06:27:42.046Z,52.10
2019-04-16T06:28:25.694Z,53.10
2019-04-16T06:29:13.707Z,53.00
2019-04-16T06:30:04.701Z,53.30
2019-04-16T06:30:51.698Z,53.00
2019-04-16T06:31:39.413Z,52.80
2019-04-16T06:32:28.157Z,52.70
2019-04-16T06:33:10.795Z,52.80
2019-04-16T06:34:11.868Z,51.40
2019-04-16T06:35:02.839Z,51.20
2019-04-16T06:35:53.702Z,51.70
2019-04-16T06:36:41.311Z,51.10
2019-04-16T06:37:23.281Z,52.00
2019-04-16T06:38:08.542Z,51.20
2019-04-16T06:39:09.999Z,52.30
2019-04-16T06:39:46.962Z,52.50
2019-04-16T06:40:37.761Z,52.20
2019-04-16T06:41:40.914Z,51.40
2019-04-16T06:42:23.214Z,52.40
2019-04-16T06:43:02.832Z,52.90
2019-04-16T06:43:38.899Z,52.30
2019-04-16T06:44:15.419Z,51.80
2019-04-16T06:44:55.998Z,51.90
2019-04-16T06:45:36.848Z,51.90
2019-04-16T06:46:21.499Z,53.50
2019-04-16T06:47:03.176Z,53.80
2019-04-16T06:47:43.327Z,54.20
2019-04-16T06:48:23.978Z,53.60
2019-04-16T06:49:10.774Z,53.40
2019-04-16T06:49:52.123Z,54.30
2019-04-16T06:50:47.207Z,54.60
2019-04-16T06:51:36.169Z,55.20
2019-04-16T06:52:26.946Z,54.80
2019-04-16T06:53:23.815Z,55.30
2019-04-16T06:54:25.396Z,55.00
2019-04-16T06:55:16.473Z,55.20
2019-04-16T06:56:09.435Z,54.70
2019-04-16T06:57:02.009Z,54.60
2019-04-16T06:58:12.487Z,54.40
2019-04-16T06:58:51.507Z,54.80
2019-04-16T06:59:52.828Z,53.30
2019-04-16T07:00:43.635Z,53.00
2019-04-16T07:01:31.289Z,52.50
2019-04-16T07:02:32.614Z,52.90
2019-04-16T07:03:36.542Z,52.40
2019-04-16T07:04:46.583Z,53.60
2019-04-16T07:05:32.335Z,54.10
2019-04-16T07:06:22.252Z,53.60
2019-04-16T07:07:13.278Z,55.00
2019-04-16T07:08:04.072Z,54.30
2019-04-16T07:08:55.738Z,54.20
2019-04-16T07:09:47.765Z,54.50
2019-04-16T07:10:22.363Z,53.40
2019-04-16T07:10:57.700Z,53.50
2019-04-16T07:11:30.875Z,54.20
2019-04-16T07:12:09.373Z,53.20
2019-04-16T07:12:42.009Z,53.00
2019-04-16T07:13:14.590Z,53.70
2019-04-16T07:13:47.131Z,54.10
2019-04-16T07:14:19.993Z,54.90
2019-04-16T07:14:52.529Z,55.10
2019-04-16T07:15:28.266Z,54.20
2019-04-16T07:15:59.435Z,53.30
2019-04-16T07:16:32.373Z,53.40
2019-04-16T07:17:04.970Z,53.50
2019-04-16T07:17:40.279Z,53.50
2019-04-16T07:18:12.519Z,52.90
2019-04-16T07:18:45.363Z,53.20
2019-04-16T07:19:17.900Z,53.30
2019-04-16T07:19:50.434Z,53.90
2019-04-16T07:20:22.954Z,53.50
2019-04-16T07:20:55.989Z,52.80
2019-04-16T07:21:28.833Z,52.90
2019-04-16T07:22:01.807Z,52.60
2019-04-16T07:22:34.481Z,52.40
2019-04-16T07:23:07.289Z,52.40
2019-04-16T07:23:39.859Z,52.60
2019-04-16T07:24:13.079Z,53.50
2019-04-16T07:24:45.742Z,53.70
2019-04-16T07:25:18.695Z,53.90
2019-04-16T07:25:52.086Z,53.90
2019-04-16T07:26:24.677Z,53.40
2019-04-16T07:26:57.318Z,53.00
2019-04-16T07:27:52.100Z,52.70
2019-04-16T07:28:28.347Z,52.80
2019-04-16T07:29:19.148Z,53.40
2019-04-16T07:30:19.841Z,54.10
2019-04-16T07:31:13.715Z,52.90
2019-04-16T07:32:05.369Z,53.20
2019-04-16T07:33:00.309Z,53.30
2019-04-16T07:33:56.832Z,53.40
2019-04-16T07:34:36.442Z,53.20
2019-04-16T07:35:16.741Z,53.40
2019-04-16T07:36:06.058Z,51.60
2019-04-16T07:36:59.906Z,51.60
2019-04-16T07:37:48.566Z,51.80
2019-04-16T07:38:26.134Z,53.10
2019-04-16T07:39:28.779Z,52.20
2019-04-16T07:40:18.099Z,51.50
2019-04-16T07:41:28.317Z,51.70
2019-04-16T07:42:11.178Z,51.30
2019-04-16T07:42:58.885Z,52.90
2019-04-16T07:43:49.481Z,53.40
2019-04-16T07:44:36.514Z,52.90
2019-04-16T07:45:35.612Z,52.30
2019-04-16T07:46:28.007Z,51.90
2019-04-16T07:47:13.386Z,52.70
2019-04-16T07:48:01.352Z,52.30
2019-04-16T07:48:55.938Z,51.40
2019-04-16T07:49:41.710Z,52.60
2019-04-16T07:50:33.304Z,51.20
2019-04-16T07:51:24.643Z,52.50